createdAt,value
2019-05-13T00:00:34.153Z,8.90
2019-05-13T00:03:03.667Z,8.90
2019-05-13T00:05:33.827Z,8.90
2019-05-13T00:08:03.582Z,8.90
2019-05-13T00:10:34.788Z,8.90
2019-05-13T00:13:04.501Z,8.80
2019-05-13T00:15:34.098Z,8.90
2019-05-13T00:18:03.960Z,8.80
2019-05-13T00:20:33.808Z,8.80
2019-05-13T00:23:03.866Z,8.80
2019-05-13T00:25:34.030Z,8.80
2019-05-13T00:28:04.203Z,8.70
2019-05-13T00:30:34.153Z,8.80
2019-05-13T00:33:03.757Z,8.80
2019-05-13T00:35:33.775Z,8.80
2019-05-13T00:38:04.095Z,8.80
2019-05-13T00:40:33.763Z,8.70
2019-05-13T00:43:03.797Z,8.60
2019-05-13T00:45:33.907Z,8.50
2019-05-13T00:48:04.480Z,8.40
2019-05-13T00:50:33.968Z,8.40
2019-05-13T00:53:04.343Z,8.30
2019-05-13T00:55:34.452Z,8.30
2019-05-13T00:58:04.558Z,8.30
2019-05-13T01:00:34.102Z,8.30
2019-05-13T01:03:04.060Z,8.30
2019-05-13T01:05:34.085Z,8.20
2019-05-13T01:08:04.370Z,8.20
2019-05-13T01:10:34.465Z,8.10
2019-05-13T01:13:04.786Z,8.00
2019-05-13T01:15:34.251Z,8.10
2019-05-13T01:18:03.949Z,8.00
2019-05-13T01:20:34.576Z,8.00
2019-05-13T01:23:03.929Z,7.90
2019-05-13T01:25:33.952Z,7.80
2019-05-13T01:28:04.675Z,7.80
2019-05-13T01:30:34.686Z,7.80
2019-05-13T01:33:04.441Z,7.80
2019-05-13T01:35:34.203Z,7.80
2019-05-13T01:38:04.604Z,7.80
2019-05-13T01:40:35.044Z,7.80
2019-05-13T01:43:03.864Z,7.80
2019-05-13T01:45:33.737Z,7.70
2019-05-13T01:48:07.266Z,7.70
2019-05-13T01:50:33.785Z,7.80
2019-05-13T01:53:04.172Z,7.70
2019-05-13T01:55:33.959Z,7.70
2019-05-13T01:58:04.198Z,7.60
2019-05-13T02:00:35.425Z,7.60
2019-05-13T02:03:04.043Z,7.60
2019-05-13T02:05:33.889Z,7.50
2019-05-13T02:08:04.480Z,7.60
2019-05-13T02:10:53.948Z,7.50
2019-05-13T02:13:24.545Z,7.40
2019-05-13T02:15:54.932Z,7.40
2019-05-13T02:18:24.460Z,7.40
2019-05-13T02:20:55.290Z,7.30
2019-05-13T02:23:24.402Z,7.30
2019-05-13T02:25:54.174Z,7.20
2019-05-13T02:28:24.640Z,7.20
2019-05-13T02:30:56.208Z,7.30
2019-05-13T02:33:24.242Z,7.10
2019-05-13T02:35:53.482Z,7.10
2019-05-13T02:38:26.349Z,7.00
2019-05-13T02:40:53.303Z,7.00
2019-05-13T02:43:23.710Z,7.00
2019-05-13T02:45:53.661Z,6.90
2019-05-13T02:48:23.698Z,6.90
2019-05-13T02:50:53.468Z,6.90
2019-05-13T02:53:23.786Z,6.80
2019-05-13T02:55:53.270Z,6.70
2019-05-13T02:58:24.364Z,6.70
2019-05-13T03:00:53.363Z,6.70
2019-05-13T03:03:23.329Z,6.70
2019-05-13T03:05:53.213Z,6.70
2019-05-13T03:08:38.576Z,6.60
2019-05-13T03:10:53.673Z,6.60
2019-05-13T03:13:23.742Z,6.60
2019-05-13T03:15:57.246Z,6.50
2019-05-13T03:18:26.105Z,6.50
2019-05-13T03:20:54.648Z,6.40
2019-05-13T03:23:23.116Z,6.30
2019-05-13T03:25:53.686Z,6.30
2019-05-13T03:28:22.546Z,6.40
2019-05-13T03:30:56.309Z,6.40
2019-05-13T03:33:27.416Z,6.30
2019-05-13T03:35:55.922Z,6.30
2019-05-13T03:38:23.053Z,6.30
2019-05-13T03:40:54.171Z,6.50
2019-05-13T03:43:24.046Z,6.50
2019-05-13T03:45:54.963Z,6.50
2019-05-13T03:48:23.828Z,6.40
2019-05-13T03:50:53.521Z,6.30
2019-05-13T03:53:23.375Z,6.20
2019-05-13T03:55:54.065Z,6.10
2019-05-13T03:58:23.927Z,6.00
2019-05-13T04:00:52.754Z,6.00
2019-05-13T04:03:22.825Z,6.00
2019-05-13T04:05:52.669Z,6.00
2019-05-13T04:08:22.774Z,6.00
2019-05-13T04:10:52.654Z,6.10
2019-05-13T04:13:23.233Z,6.10
2019-05-13T04:15:53.047Z,6.20
2019-05-13T04:18:23.359Z,6.20
2019-05-13T04:20:53.117Z,6.20
2019-05-13T04:23:23.301Z,6.30
2019-05-13T04:25:53.737Z,6.50
2019-05-13T04:28:22.428Z,6.70
2019-05-13T04:30:52.594Z,7.70
2019-05-13T04:33:22.978Z,9.00
2019-05-13T04:35:52.980Z,9.80
2019-05-13T04:38:22.907Z,11.00
2019-05-13T04:40:52.901Z,11.70
2019-05-13T04:43:23.459Z,12.10
2019-05-13T04:45:52.579Z,12.20
2019-05-13T04:48:22.937Z,11.70
2019-05-13T04:50:53.305Z,11.70
2019-05-13T04:53:22.869Z,11.90
2019-05-13T04:55:52.597Z,12.40
2019-05-13T04:58:23.437Z,12.50
2019-05-13T05:01:14.663Z,12.90
2019-05-13T05:03:53.384Z,13.10
2019-05-13T05:06:42.442Z,12.80
2019-05-13T05:09:28.709Z,12.60
2019-05-13T05:12:23.085Z,11.90
2019-05-13T05:15:27.935Z,11.90
2019-05-13T05:18:32.892Z,12.50
2019-05-13T05:21:04.399Z,12.50
2019-05-13T05:23:57.561Z,11.70
2019-05-13T05:26:49.351Z,12.00
2019-05-13T05:29:42.234Z,11.70
2019-05-13T05:32:16.777Z,11.50
2019-05-13T05:35:14.351Z,11.40
2019-05-13T05:37:57.943Z,11.40
2019-05-13T05:40:32.330Z,11.80
2019-05-13T05:43:04.509Z,11.90
2019-05-13T05:45:37.701Z,11.40
2019-05-13T05:48:11.899Z,11.50
2019-05-13T05:50:46.729Z,12.30
2019-05-13T05:53:17.809Z,13.20
2019-05-13T05:55:51.933Z,13.50
2019-05-13T05:58:25.446Z,13.40
2019-05-13T06:01:02.593Z,13.00
2019-05-13T06:03:36.594Z,12.80
2019-05-13T06:06:07.676Z,12.80
2019-05-13T06:08:41.911Z,12.30
2019-05-13T06:11:11.732Z,12.30
2019-05-13T06:13:42.034Z,12.40
2019-05-13T06:16:12.307Z,12.20
2019-05-13T06:18:46.912Z,12.50
2019-05-13T06:21:18.678Z,12.60
2019-05-13T06:23:51.882Z,12.90
2019-05-13T06:26:23.364Z,12.90
2019-05-13T06:28:52.051Z,12.70
2019-05-13T06:31:21.538Z,12.50
2019-05-13T06:33:55.067Z,11.60
2019-05-13T06:36:31.651Z,12.10
2019-05-13T06:39:02.915Z,12.30
2019-05-13T06:41:35.077Z,12.60
2019-05-13T06:44:11.985Z,12.80
2019-05-13T06:46:44.082Z,12.70
2019-05-13T06:49:18.440Z,13.00
2019-05-13T06:51:52.789Z,13.30
2019-05-13T06:54:25.708Z,13.00
2019-05-13T06:56:59.212Z,13.10
2019-05-13T06:59:31.573Z,13.50
2019-05-13T07:02:02.106Z,13.40
2019-05-13T07:04:32.603Z,13.60
2019-05-13T07:07:12.805Z,13.90
2019-05-13T07:09:36.142Z,14.20
2019-05-13T07:12:08.491Z,13.90
2019-05-13T07:14:37.926Z,14.30
2019-05-13T07:17:06.482Z,13.70
2019-05-13T07:19:36.798Z,14.70
2019-05-13T07:22:08.376Z,15.50
2019-05-13T07:24:36.932Z,16.00
2019-05-13T07:27:05.383Z,15.40
2019-05-13T07:29:35.768Z,15.40
2019-05-13T07:32:09.150Z,15.40
2019-05-13T07:34:34.397Z,16.20
2019-05-13T07:37:04.217Z,16.80
2019-05-13T07:39:37.963Z,16.60
2019-05-13T07:42:13.067Z,17.00
2019-05-13T07:44:45.778Z,16.30
2019-05-13T07:47:16.221Z,15.60
2019-05-13T07:49:45.225Z,16.10
2019-05-13T07:52:13.923Z,16.60
2019-05-13T07:54:47.841Z,16.60
2019-05-13T07:57:21.506Z,16.40
2019-05-13T07:59:56.100Z,15.60
2019-05-13T08:02:28.088Z,15.20
2019-05-13T08:04:56.534Z,15.70
2019-05-13T08:07:26.741Z,15.80
2019-05-13T08:10:00.209Z,16.40
2019-05-13T08:12:31.933Z,16.50
2019-05-13T08:15:05.809Z,17.10
2019-05-13T08:17:44.303Z,16.10
2019-05-13T08:20:12.527Z,16.20
2019-05-13T08:22:47.958Z,16.60
2019-05-13T08:25:22.320Z,17.40
2019-05-13T08:27:54.081Z,18.10
2019-05-13T08:30:24.089Z,19.70
2019-05-13T08:32:52.459Z,20.10
2019-05-13T08:35:23.091Z,18.60
2019-05-13T08:37:56.694Z,18.30
2019-05-13T08:40:26.803Z,18.20
2019-05-13T08:42:55.500Z,19.10
2019-05-13T08:45:26.153Z,18.80
2019-05-13T08:48:01.762Z,18.20
2019-05-13T08:50:32.461Z,17.00
2019-05-13T08:53:05.066Z,17.90
2019-05-13T08:55:37.920Z,18.10
2019-05-13T08:58:06.456Z,18.20
2019-05-13T09:00:49.379Z,18.70
2019-05-13T09:03:22.707Z,19.30
2019-05-13T09:05:54.754Z,18.60
2019-05-13T09:08:28.815Z,18.40
2019-05-13T09:11:01.527Z,18.80
2019-05-13T09:13:27.558Z,19.20
2019-05-13T09:15:58.179Z,18.70
2019-05-13T09:18:32.092Z,18.70
2019-05-13T09:21:04.702Z,18.10
2019-05-13T09:23:35.139Z,18.20
2019-05-13T09:26:04.074Z,18.10
2019-05-13T09:28:35.562Z,18.70
2019-05-13T09:31:07.129Z,19.00
2019-05-13T09:33:41.861Z,18.40
2019-05-13T09:36:15.024Z,18.10
2019-05-13T09:38:47.502Z,18.70
2019-05-13T09:41:16.841Z,18.20
2019-05-13T09:43:45.443Z,17.60
2019-05-13T09:46:16.002Z,17.80
2019-05-13T09:48:51.622Z,17.80
2019-05-13T09:51:23.982Z,17.60
2019-05-13T09:53:56.865Z,17.70
2019-05-13T09:56:31.801Z,18.10
2019-05-13T09:59:04.355Z,17.90
2019-05-13T10:01:33.283Z,18.30
2019-05-13T10:04:02.986Z,18.00
2019-05-13T10:06:33.622Z,18.00
2019-05-13T10:09:05.728Z,17.80
2019-05-13T10:11:34.630Z,18.20
2019-05-13T10:14:03.720Z,19.00
2019-05-13T10:16:33.888Z,18.60
2019-05-13T10:19:06.366Z,18.80
2019-05-13T10:21:41.980Z,19.30
2019-05-13T10:24:15.314Z,19.20
2019-05-13T10:26:51.502Z,18.40
2019-05-13T10:29:25.918Z,18.40
2019-05-13T10:32:02.114Z,18.70
2019-05-13T10:34:33.224Z,18.90
2019-05-13T10:37:06.073Z,18.10
2019-05-13T10:39:37.819Z,17.90
2019-05-13T10:42:06.577Z,18.00
2019-05-13T10:44:35.012Z,18.00
2019-05-13T10:47:06.565Z,17.80
2019-05-13T10:49:42.404Z,17.10
2019-05-13T10:52:13.055Z,17.40
2019-05-13T10:54:41.695Z,18.00
2019-05-13T10:57:13.365Z,17.90
2019-05-13T10:59:42.993Z,17.70
2019-05-13T11:02:17.014Z,17.70
2019-05-13T11:04:49.427Z,17.60
2019-05-13T11:07:18.949Z,17.50
2019-05-13T11:09:48.094Z,17.50
2019-05-13T11:12:18.113Z,17.50
2019-05-13T11:14:53.988Z,18.00
2019-05-13T11:17:30.784Z,17.70
2019-05-13T11:20:03.406Z,18.10
2019-05-13T11:22:33.901Z,18.00
2019-05-13T11:25:04.254Z,18.00
2019-05-13T11:27:33.402Z,18.10
2019-05-13T11:30:05.573Z,17.90
2019-05-13T11:32:33.406Z,17.60
2019-05-13T11:35:02.147Z,17.70
2019-05-13T11:37:32.195Z,17.80
2019-05-13T11:40:02.846Z,18.00
2019-05-13T11:42:35.786Z,17.40
2019-05-13T11:45:11.521Z,17.30
2019-05-13T11:47:41.703Z,17.70
2019-05-13T11:50:11.643Z,17.90
2019-05-13T11:52:43.598Z,17.70
2019-05-13T11:55:13.247Z,17.80
2019-05-13T11:57:44.479Z,17.70
2019-05-13T12:00:17.807Z,17.60
2019-05-13T12:02:54.480Z,17.20
2019-05-13T12:05:16.585Z,16.80
2019-05-13T12:07:48.317Z,16.50
2019-05-13T12:10:22.663Z,16.30
2019-05-13T12:12:54.131Z,16.50
2019-05-13T12:15:45.018Z,16.40
2019-05-13T12:18:02.920Z,16.50
2019-05-13T12:20:35.831Z,16.70
2019-05-13T12:23:09.255Z,16.60
2019-05-13T12:25:45.229Z,16.60
2019-05-13T12:28:17.123Z,16.70
2019-05-13T12:30:53.424Z,16.60
2019-05-13T12:33:26.365Z,16.60
2019-05-13T12:36:01.836Z,16.20
2019-05-13T12:38:34.150Z,16.20
2019-05-13T12:41:08.040Z,16.30
2019-05-13T12:43:34.969Z,16.20
2019-05-13T12:46:03.825Z,16.50
2019-05-13T12:48:37.285Z,16.30
2019-05-13T12:51:13.298Z,16.60
2019-05-13T12:53:43.780Z,16.40
2019-05-13T12:56:15.945Z,16.40
2019-05-13T12:58:44.382Z,16.60
2019-05-13T13:01:13.029Z,16.80
2019-05-13T13:03:47.551Z,16.20
2019-05-13T13:06:31.445Z,16.10
2019-05-13T13:08:52.496Z,16.50
2019-05-13T13:11:26.145Z,16.70
2019-05-13T13:14:04.943Z,16.30
2019-05-13T13:16:53.617Z,16.40
2019-05-13T13:19:14.542Z,16.60
2019-05-13T13:21:45.816Z,16.30
2019-05-13T13:24:16.989Z,16.40
2019-05-13T13:26:53.392Z,16.40
2019-05-13T13:29:25.819Z,16.50
2019-05-13T13:31:58.333Z,16.70
2019-05-13T13:34:27.137Z,16.70
2019-05-13T13:36:56.396Z,16.60
2019-05-13T13:39:26.779Z,16.60
2019-05-13T13:42:05.402Z,16.70
2019-05-13T13:44:35.197Z,16.80
2019-05-13T13:47:08.441Z,16.80
2019-05-13T13:49:43.956Z,16.60
2019-05-13T13:52:17.117Z,16.60
2019-05-13T13:55:02.188Z,16.40
2019-05-13T13:57:25.758Z,16.50
2019-05-13T14:00:29.587Z,16.60
2019-05-13T14:02:37.040Z,16.70
2019-05-13T14:05:07.033Z,16.60
2019-05-13T14:07:42.379Z,16.50
2019-05-13T14:10:15.144Z,16.60
2019-05-13T14:13:04.266Z,16.70
2019-05-13T14:15:23.849Z,16.60
2019-05-13T14:17:58.823Z,16.60
2019-05-13T14:20:32.673Z,16.70
2019-05-13T14:23:04.678Z,16.70
2019-05-13T14:25:34.920Z,16.70
2019-05-13T14:28:03.944Z,16.60
2019-05-13T14:30:35.384Z,16.60
2019-05-13T14:33:06.252Z,16.60
2019-05-13T14:35:41.594Z,16.60
2019-05-13T14:38:14.702Z,16.70
2019-05-13T14:43:23.002Z,16.60
2019-05-13T14:45:51.890Z,16.70
2019-05-13T14:48:22.072Z,16.70
2019-05-13T14:50:52.242Z,16.80
2019-05-13T14:53:25.244Z,16.70
2019-05-13T14:55:58.419Z,16.60
2019-05-13T14:58:32.450Z,16.70
2019-05-13T15:01:15.871Z,16.80
2019-05-13T15:03:41.602Z,16.90
2019-05-13T15:06:13.280Z,16.80
2019-05-13T15:08:43.722Z,16.60
2019-05-13T15:11:12.596Z,16.60
2019-05-13T15:13:42.629Z,16.60
2019-05-13T15:16:15.615Z,16.60
2019-05-13T15:18:48.855Z,16.60
2019-05-13T15:23:56.667Z,16.60
2019-05-13T15:26:25.447Z,16.60
2019-05-13T15:28:53.926Z,16.60
2019-05-13T15:31:22.372Z,16.60
2019-05-13T15:33:52.399Z,16.50
2019-05-13T15:36:22.623Z,16.60
2019-05-13T15:38:52.015Z,16.50
2019-05-13T15:41:20.725Z,16.50
2019-05-13T15:43:51.200Z,16.60
2019-05-13T15:46:21.804Z,16.60
2019-05-13T15:48:51.358Z,16.60
2019-05-13T15:51:21.888Z,16.60
2019-05-13T15:53:51.795Z,16.70
2019-05-13T15:56:22.369Z,16.60
2019-05-13T15:58:52.600Z,16.50
2019-05-13T16:01:22.980Z,16.50
2019-05-13T16:03:53.313Z,16.50
2019-05-13T16:06:21.751Z,16.50
2019-05-13T16:08:51.916Z,16.50
2019-05-13T16:11:21.963Z,16.50
2019-05-13T16:13:51.753Z,16.50
2019-05-13T16:16:21.991Z,16.50
2019-05-13T16:18:51.608Z,16.50
2019-05-13T16:21:20.504Z,16.50
2019-05-13T16:23:48.938Z,16.40
2019-05-13T16:26:17.821Z,16.40
2019-05-13T16:28:46.236Z,16.30
2019-05-13T16:31:14.676Z,16.30
2019-05-13T16:33:43.161Z,16.30
2019-05-13T16:36:12.708Z,16.40
2019-05-13T16:38:41.862Z,16.50
2019-05-13T16:41:12.435Z,16.40
2019-05-13T16:43:42.651Z,16.40
2019-05-13T16:46:12.211Z,16.30
2019-05-13T16:48:41.601Z,16.30
2019-05-13T16:51:12.415Z,16.30
2019-05-13T16:53:42.207Z,16.30
2019-05-13T16:56:25.287Z,16.20
2019-05-13T16:58:42.088Z,16.20
2019-05-13T17:01:11.691Z,16.10
2019-05-13T17:03:41.440Z,16.10
2019-05-13T17:06:12.437Z,16.10
2019-05-13T17:08:42.405Z,16.10
2019-05-13T17:11:11.763Z,16.10
2019-05-13T17:13:42.164Z,16.10
2019-05-13T17:16:11.092Z,16.10
2019-05-13T17:18:41.513Z,16.10
2019-05-13T17:21:09.740Z,16.00
2019-05-13T17:23:38.199Z,16.00
2019-05-13T17:26:06.628Z,16.00
2019-05-13T17:28:35.082Z,16.00
2019-05-13T17:31:03.629Z,16.00
2019-05-13T17:33:32.125Z,15.80
2019-05-13T17:36:01.961Z,15.80
2019-05-13T17:38:32.249Z,15.80
2019-05-13T17:41:02.266Z,15.80
2019-05-13T17:43:32.024Z,15.80
2019-05-13T17:46:01.419Z,15.80
2019-05-13T17:48:32.824Z,15.70
2019-05-13T17:51:01.364Z,15.70
2019-05-13T17:53:32.235Z,15.60
2019-05-13T17:56:02.289Z,15.60
2019-05-13T17:58:31.366Z,15.60
2019-05-13T18:01:01.755Z,15.60
2019-05-13T18:03:31.995Z,15.50
2019-05-13T18:06:02.385Z,15.50
2019-05-13T18:08:51.796Z,15.40
2019-05-13T18:11:21.932Z,15.40
2019-05-13T18:13:51.906Z,15.30
2019-05-13T18:16:21.733Z,15.30
2019-05-13T18:18:52.139Z,15.20
2019-05-13T18:21:21.023Z,15.20
2019-05-13T18:23:51.946Z,15.20
2019-05-13T18:26:21.634Z,15.10
2019-05-13T18:28:51.517Z,15.10
2019-05-13T18:31:20.146Z,15.00
2019-05-13T18:33:50.710Z,14.90
2019-05-13T18:36:19.166Z,14.90
2019-05-13T18:38:47.970Z,14.80
2019-05-13T18:41:16.710Z,14.80
2019-05-13T18:43:45.182Z,14.70
2019-05-13T18:46:13.606Z,14.70
2019-05-13T18:48:57.639Z,14.60
2019-05-13T18:51:12.261Z,14.60
2019-05-13T18:53:41.472Z,14.50
2019-05-13T18:56:12.281Z,14.40
2019-05-13T18:58:40.260Z,14.30
2019-05-13T19:01:11.113Z,14.20
2019-05-13T19:03:41.311Z,14.10
2019-05-13T19:06:11.440Z,14.10
2019-05-13T19:08:41.223Z,14.00
2019-05-13T19:11:11.797Z,14.00
2019-05-13T19:13:41.689Z,13.90
2019-05-13T19:16:11.837Z,14.00
2019-05-13T19:18:42.320Z,13.90
2019-05-13T19:21:10.713Z,13.80
2019-05-13T19:23:39.230Z,13.70
2019-05-13T19:26:07.801Z,13.70
2019-05-13T19:28:36.231Z,13.60
2019-05-13T19:31:04.689Z,13.60
2019-05-13T19:33:33.137Z,13.40
2019-05-13T19:36:02.635Z,13.40
2019-05-13T19:38:31.863Z,13.40
2019-05-13T19:41:01.893Z,13.30
2019-05-13T19:43:31.443Z,13.20
2019-05-13T19:46:01.639Z,13.20
2019-05-13T19:48:32.631Z,13.20
2019-05-13T19:51:01.616Z,13.00
2019-05-13T19:53:31.908Z,13.00
2019-05-13T19:56:01.431Z,13.00
2019-05-13T19:58:32.281Z,12.90
2019-05-13T20:01:00.417Z,12.90
2019-05-13T20:03:31.507Z,12.80
2019-05-13T20:05:59.134Z,12.70
2019-05-13T20:08:27.700Z,12.70
2019-05-13T20:10:56.146Z,12.60
2019-05-13T20:13:24.603Z,12.50
2019-05-13T20:15:54.390Z,12.40
2019-05-13T20:18:26.476Z,12.30
2019-05-13T20:20:54.732Z,12.30
2019-05-13T20:23:23.212Z,12.20
2019-05-13T20:25:52.187Z,12.20
2019-05-13T20:28:20.894Z,12.10
2019-05-13T20:30:51.148Z,12.00
2019-05-13T20:33:19.526Z,12.00
2019-05-13T20:35:47.959Z,11.90
2019-05-13T20:38:17.301Z,11.90
2019-05-13T20:40:45.774Z,11.80
2019-05-13T20:43:14.193Z,11.80
2019-05-13T20:45:42.680Z,11.80
2019-05-13T20:48:12.004Z,11.70
2019-05-13T20:50:41.343Z,11.60
2019-05-13T20:53:11.526Z,11.50
2019-05-13T20:55:41.690Z,11.50
2019-05-13T20:58:12.704Z,11.50
2019-05-13T21:00:42.211Z,11.40
2019-05-13T21:03:11.727Z,11.30
2019-05-13T21:05:41.564Z,11.20
2019-05-13T21:08:10.336Z,11.10
2019-05-13T21:10:38.784Z,11.10
2019-05-13T21:13:07.214Z,11.10
2019-05-13T21:15:35.774Z,11.20
2019-05-13T21:18:04.308Z,11.30
2019-05-13T21:20:32.744Z,11.30
2019-05-13T21:23:02.278Z,11.50
2019-05-13T21:25:31.184Z,11.50
2019-05-13T21:28:01.987Z,11.60
2019-05-13T21:30:30.188Z,11.70
2019-05-13T21:32:58.650Z,11.70
2019-05-13T21:35:27.297Z,11.80
2019-05-13T21:37:55.762Z,11.80
2019-05-13T21:40:24.180Z,11.80
2019-05-13T21:42:52.839Z,11.80
2019-05-13T21:45:21.382Z,11.80
2019-05-13T21:47:49.841Z,11.90
2019-05-13T21:50:31.176Z,11.80
2019-05-13T21:52:48.589Z,11.80
2019-05-13T21:55:18.173Z,11.70
2019-05-13T21:57:46.590Z,11.60
2019-05-13T22:00:17.224Z,11.60
2019-05-13T22:02:45.705Z,11.60
2019-05-13T22:05:14.246Z,11.50
2019-05-13T22:07:42.688Z,11.50
2019-05-13T22:10:11.584Z,11.50
2019-05-13T22:12:41.510Z,11.50
2019-05-13T22:15:10.412Z,11.50
2019-05-13T22:17:38.869Z,11.40
2019-05-13T22:20:07.571Z,11.40
2019-05-13T22:22:36.028Z,11.40
2019-05-13T22:25:08.943Z,11.40
2019-05-13T22:27:37.408Z,11.30
2019-05-13T22:30:07.450Z,11.30
2019-05-13T22:32:35.940Z,11.30
2019-05-13T22:35:05.580Z,11.30
2019-05-13T22:37:34.102Z,11.30
2019-05-13T22:40:04.158Z,11.30
2019-05-13T22:42:32.870Z,11.30
2019-05-13T22:45:02.862Z,11.20
2019-05-13T22:47:31.669Z,11.20
2019-05-13T22:50:02.126Z,11.20
2019-05-13T22:52:31.307Z,11.20
2019-05-13T22:55:02.291Z,11.20
2019-05-13T22:57:31.328Z,11.20
2019-05-13T22:59:59.960Z,11.20
2019-05-13T23:02:28.626Z,11.20
2019-05-13T23:04:57.115Z,11.10
2019-05-13T23:07:25.530Z,11.10
2019-05-13T23:09:54.292Z,11.00
2019-05-13T23:12:22.857Z,11.00
2019-05-13T23:14:52.041Z,10.90
2019-05-13T23:17:21.572Z,11.00
2019-05-13T23:19:52.179Z,10.90
2019-05-13T23:22:20.418Z,11.00
2019-05-13T23:24:48.865Z,10.90
2019-05-13T23:27:17.277Z,10.80
2019-05-13T23:29:45.713Z,10.80
2019-05-13T23:32:14.177Z,10.70
2019-05-13T23:34:42.580Z,10.70
2019-05-13T23:37:11.449Z,10.60
2019-05-13T23:39:41.610Z,10.60
2019-05-13T23:42:12.164Z,10.60
2019-05-13T23:44:41.426Z,10.60
2019-05-13T23:47:11.524Z,10.50
2019-05-13T23:49:42.199Z,10.50
2019-05-13T23:52:11.673Z,10.40
2019-05-13T23:54:42.499Z,10.40
2019-05-13T23:57:11.788Z,10.40
2019-05-13T23:59:42.023Z,10.40
